sensor_id;sensor_type;location;lat;lon;timestamp;temperature;humidity
12374;DHT22;6251;51.762;8.660;2024-02-28T00:09:05;-0.50;99.90
12374;DHT22;6251;51.762;8.660;2024-02-28T02:00:50;-0.90;99.90
12374;DHT22;6251;51.762;8.660;2024-02-28T02:10:52;-0.70;99.90
12374;DHT22;6251;51.762;8.660;2024-02-28T03:52:26;0.60;99.90
12374;DHT22;6251;51.762;8.660;2024-02-28T05:03:34;0.70;99.90
12374;DHT22;6251;51.762;8.660;2024-02-28T05:13:36;0.60;99.90
12374;DHT22;6251;51.762;8.660;2024-02-28T05:23:36;0.60;99.90
12374;DHT22;6251;51.762;8.660;2024-02-28T05:33:37;0.60;99.90
12374;DHT22;6251;51.762;8.660;2024-02-28T05:43:38;0.60;99.90
12374;DHT22;6251;51.762;8.660;2024-02-28T05:53:39;0.60;99.90
12374;DHT22;6251;51.762;8.660;2024-02-28T06:03:40;0.70;99.90
12374;DHT22;6251;51.762;8.660;2024-02-28T06:13:41;0.80;99.90
12374;DHT22;6251;51.762;8.660;2024-02-28T06:23:42;0.80;99.90
12374;DHT22;6251;51.762;8.660;2024-02-28T06:33:43;0.80;99.90
12374;DHT22;6251;51.762;8.660;2024-02-28T06:43:44;0.90;99.90
12374;DHT22;6251;51.762;8.660;2024-02-28T06:53:46;0.90;99.90
12374;DHT22;6251;51.762;8.660;2024-02-28T07:03:46;1.00;99.90
12374;DHT22;6251;51.762;8.660;2024-02-28T07:13:47;1.00;99.90
12374;DHT22;6251;51.762;8.660;2024-02-28T07:23:48;1.10;99.90
12374;DHT22;6251;51.762;8.660;2024-02-28T07:33:48;1.20;99.90
12374;DHT22;6251;51.762;8.660;2024-02-28T07:43:49;1.20;99.90
12374;DHT22;6251;51.762;8.660;2024-02-28T07:53:49;1.40;99.90
12374;DHT22;6251;51.762;8.660;2024-02-28T08:03:50;1.40;99.90
12374;DHT22;6251;51.762;8.660;2024-02-28T08:13:51;1.40;99.90
12374;DHT22;6251;51.762;8.660;2024-02-28T08:23:52;1.50;99.90
12374;DHT22;6251;51.762;8.660;2024-02-28T08:33:52;1.60;99.90
12374;DHT22;6251;51.762;8.660;2024-02-28T08:43:53;1.70;99.90
12374;DHT22;6251;51.762;8.660;2024-02-28T08:53:54;1.90;99.90
12374;DHT22;6251;51.762;8.660;2024-02-28T09:03:55;2.00;99.90
12374;DHT22;6251;51.762;8.660;2024-02-28T09:13:56;2.30;99.90
12374;DHT22;6251;51.762;8.660;2024-02-28T09:23:57;2.80;99.90
12374;DHT22;6251;51.762;8.660;2024-02-28T09:33:57;3.20;99.90
12374;DHT22;6251;51.762;8.660;2024-02-28T09:44:00;3.40;99.90
12374;DHT22;6251;51.762;8.660;2024-02-28T09:54:03;3.50;99.90
12374;DHT22;6251;51.762;8.660;2024-02-28T10:04:05;3.70;99.90
12374;DHT22;6251;51.762;8.660;2024-02-28T10:14:07;3.70;99.90
12374;DHT22;6251;51.762;8.660;2024-02-28T10:24:07;3.80;99.90
12374;DHT22;6251;51.762;8.660;2024-02-28T10:34:08;3.90;99.90
12374;DHT22;6251;51.762;8.660;2024-02-28T10:44:09;4.10;99.90
12374;DHT22;6251;51.762;8.660;2024-02-28T10:54:13;4.40;99.90
12374;DHT22;6251;51.762;8.660;2024-02-28T11:04:18;4.50;99.90
12374;DHT22;6251;51.762;8.660;2024-02-28T11:14:19;5.00;99.90
12374;DHT22;6251;51.762;8.660;2024-02-28T11:24:28;5.30;99.90
12374;DHT22;6251;51.762;8.660;2024-02-28T11:34:29;5.60;99.90
12374;DHT22;6251;51.762;8.660;2024-02-28T11:44:30;5.60;99.90
12374;DHT22;6251;51.762;8.660;2024-02-28T11:54:32;5.70;99.90
12374;DHT22;6251;51.762;8.660;2024-02-28T12:04:36;5.50;99.90
12374;DHT22;6251;51.762;8.660;2024-02-28T12:14:37;5.50;99.90
12374;DHT22;6251;51.762;8.660;2024-02-28T12:24:42;5.60;99.90
12374;DHT22;6251;51.762;8.660;2024-02-28T12:34:43;5.80;99.90
12374;DHT22;6251;51.762;8.660;2024-02-28T12:44:44;6.00;99.90
12374;DHT22;6251;51.762;8.660;2024-02-28T12:54:47;6.20;99.90
12374;DHT22;6251;51.762;8.660;2024-02-28T13:04:48;6.30;99.90
12374;DHT22;6251;51.762;8.660;2024-02-28T13:14:51;6.40;99.90
12374;DHT22;6251;51.762;8.660;2024-02-28T13:24:52;6.60;99.90
12374;DHT22;6251;51.762;8.660;2024-02-28T13:34:52;6.90;99.90
12374;DHT22;6251;51.762;8.660;2024-02-28T13:44:53;7.00;99.90
12374;DHT22;6251;51.762;8.660;2024-02-28T13:54:54;7.20;99.90
12374;DHT22;6251;51.762;8.660;2024-02-28T14:04:55;7.40;99.90
12374;DHT22;6251;51.762;8.660;2024-02-28T14:14:55;7.50;99.90
12374;DHT22;6251;51.762;8.660;2024-02-28T14:24:56;7.50;99.90
12374;DHT22;6251;51.762;8.660;2024-02-28T14:34:57;7.50;99.90
12374;DHT22;6251;51.762;8.660;2024-02-28T14:44:57;7.60;99.90
12374;DHT22;6251;51.762;8.660;2024-02-28T14:54:58;7.70;99.90
12374;DHT22;6251;51.762;8.660;2024-02-28T15:04:58;7.80;99.90
12374;DHT22;6251;51.762;8.660;2024-02-28T15:15:01;7.80;99.90
12374;DHT22;6251;51.762;8.660;2024-02-28T15:25:05;7.80;99.90
12374;DHT22;6251;51.762;8.660;2024-02-28T15:35:08;7.60;99.90
12374;DHT22;6251;51.762;8.660;2024-02-28T15:45:09;7.40;99.90
12374;DHT22;6251;51.762;8.660;2024-02-28T15:55:12;7.20;99.90
12374;DHT22;6251;51.762;8.660;2024-02-28T16:05:13;7.00;99.90
12374;DHT22;6251;51.762;8.660;2024-02-28T16:15:14;6.90;99.90
12374;DHT22;6251;51.762;8.660;2024-02-28T16:25:15;6.80;99.90
12374;DHT22;6251;51.762;8.660;2024-02-28T16:35:16;6.70;99.90
12374;DHT22;6251;51.762;8.660;2024-02-28T16:45:17;6.60;99.90
12374;DHT22;6251;51.762;8.660;2024-02-28T16:55:17;6.40;99.90
12374;DHT22;6251;51.762;8.660;2024-02-28T17:05:18;6.20;99.90
12374;DHT22;6251;51.762;8.660;2024-02-28T17:15:19;5.90;99.90
12374;DHT22;6251;51.762;8.660;2024-02-28T17:25:20;5.70;99.90
12374;DHT22;6251;51.762;8.660;2024-02-28T17:35:20;5.60;99.90
12374;DHT22;6251;51.762;8.660;2024-02-28T17:45:21;5.40;99.90
12374;DHT22;6251;51.762;8.660;2024-02-28T17:55:22;5.20;99.90
12374;DHT22;6251;51.762;8.660;2024-02-28T18:05:22;5.10;99.90
12374;DHT22;6251;51.762;8.660;2024-02-28T18:15:24;4.90;99.90
12374;DHT22;6251;51.762;8.660;2024-02-28T18:25:25;4.80;99.90
12374;DHT22;6251;51.762;8.660;2024-02-28T18:35:25;4.70;99.90
12374;DHT22;6251;51.762;8.660;2024-02-28T18:45:28;4.70;99.90
12374;DHT22;6251;51.762;8.660;2024-02-28T18:55:28;4.70;99.90
12374;DHT22;6251;51.762;8.660;2024-02-28T19:05:29;4.50;99.90
12374;DHT22;6251;51.762;8.660;2024-02-28T19:15:30;4.40;99.90
12374;DHT22;6251;51.762;8.660;2024-02-28T19:25:31;4.20;99.90
12374;DHT22;6251;51.762;8.660;2024-02-28T19:35:31;4.00;99.90
12374;DHT22;6251;51.762;8.660;2024-02-28T19:45:32;3.80;99.90
12374;DHT22;6251;51.762;8.660;2024-02-28T19:55:33;3.70;99.90
12374;DHT22;6251;51.762;8.660;2024-02-28T20:05:34;3.70;99.90
12374;DHT22;6251;51.762;8.660;2024-02-28T20:15:35;3.60;99.90
12374;DHT22;6251;51.762;8.660;2024-02-28T20:25:35;3.50;99.90
12374;DHT22;6251;51.762;8.660;2024-02-28T20:35:36;3.50;99.90
12374;DHT22;6251;51.762;8.660;2024-02-28T20:45:37;3.40;99.90
12374;DHT22;6251;51.762;8.660;2024-02-28T20:55:38;3.40;99.90
12374;DHT22;6251;51.762;8.660;2024-02-28T21:05:39;3.30;99.90
12374;DHT22;6251;51.762;8.660;2024-02-28T21:15:39;3.20;99.90
12374;DHT22;6251;51.762;8.660;2024-02-28T21:25:40;3.10;99.90
12374;DHT22;6251;51.762;8.660;2024-02-28T21:35:40;3.00;99.90
12374;DHT22;6251;51.762;8.660;2024-02-28T21:45:42;2.80;99.90
12374;DHT22;6251;51.762;8.660;2024-02-28T21:55:43;2.60;99.90
